createdAt,value
2023-05-04T00:02:46.751Z,99206.30
2023-05-04T00:07:54.056Z,99204.26
2023-05-04T00:13:01.339Z,99204.02
2023-05-04T00:18:08.978Z,99202.84
2023-05-04T00:23:16.145Z,99195.41
2023-05-04T00:28:23.519Z,99193.36
2023-05-04T00:33:30.795Z,99194.32
2023-05-04T00:38:48.529Z,99193.45
2023-05-04T00:43:55.931Z,99187.44
2023-05-04T00:49:03.488Z,99181.29
2023-05-04T00:54:11.020Z,99179.02
2023-05-04T00:59:18.259Z,99178.94
2023-05-04T01:04:25.883Z,99176.34
2023-05-04T01:09:36.027Z,99170.98
2023-05-04T01:14:43.648Z,99172.94
2023-05-04T01:19:51.540Z,99168.06
2023-05-04T01:24:59.008Z,99173.27
2023-05-04T01:30:10.359Z,99168.13
2023-05-04T01:35:17.253Z,99164.11
2023-05-04T01:40:24.689Z,99164.45
2023-05-04T01:45:32.364Z,99157.41
2023-05-04T01:50:39.533Z,99157.89
2023-05-04T01:55:47.114Z,99149.45
2023-05-04T02:00:54.523Z,99147.80
2023-05-04T02:06:02.010Z,99153.23
2023-05-04T02:11:09.441Z,99153.48
2023-05-04T02:16:16.770Z,99150.79
2023-05-04T02:21:24.254Z,99151.66
2023-05-04T02:26:31.511Z,99151.36
2023-05-04T02:31:38.661Z,99148.05
2023-05-04T02:36:46.119Z,99146.08
2023-05-04T02:41:53.595Z,99148.45
2023-05-04T02:47:00.864Z,99151.61
2023-05-04T02:52:08.572Z,99150.27
2023-05-04T02:57:16.086Z,99155.71
2023-05-04T03:02:23.427Z,99156.03
2023-05-04T03:07:30.875Z,99157.06
2023-05-04T03:12:37.965Z,99156.13
2023-05-04T03:17:45.234Z,99157.23
2023-05-04T03:22:52.627Z,99149.10
2023-05-04T03:27:59.759Z,99146.81
2023-05-04T03:33:07.155Z,99152.41
2023-05-04T03:38:14.599Z,99152.73
2023-05-04T03:43:21.816Z,99155.98
2023-05-04T03:48:29.318Z,99160.95
2023-05-04T03:53:36.950Z,99156.37
2023-05-04T03:58:44.417Z,99163.23
2023-05-04T04:03:51.809Z,99156.46
2023-05-04T04:08:59.117Z,99159.30
2023-05-04T04:14:06.255Z,99156.78
2023-05-04T04:19:13.525Z,99163.26
2023-05-04T04:24:21.014Z,99166.17
2023-05-04T04:29:28.232Z,99164.75
2023-05-04T04:34:35.481Z,99167.11
2023-05-04T04:39:42.596Z,99170.02
2023-05-04T04:44:49.998Z,99167.65
2023-05-04T04:49:57.296Z,99170.09
2023-05-04T04:55:05.416Z,99169.13
2023-05-04T05:00:15.126Z,99167.53
2023-05-04T05:05:22.287Z,99170.45
2023-05-04T05:10:29.685Z,99171.46
2023-05-04T05:15:37.084Z,99165.11
2023-05-04T05:20:44.367Z,99164.71
2023-05-04T05:25:51.960Z,99168.40
2023-05-04T05:30:59.084Z,99175.02
2023-05-04T05:36:06.690Z,99172.87
2023-05-04T05:41:15.658Z,99172.38
2023-05-04T05:46:23.171Z,99170.77
2023-05-04T05:51:30.655Z,99176.53
2023-05-04T05:56:37.741Z,99175.40
2023-05-04T06:01:44.967Z,99172.62
2023-05-04T06:06:52.038Z,99174.17
2023-05-04T06:11:59.567Z,99170.89
2023-05-04T06:17:07.046Z,99175.41
2023-05-04T06:22:14.866Z,99175.48
2023-05-04T06:27:24.209Z,99175.55
2023-05-04T06:32:32.589Z,99169.84
2023-05-04T06:37:40.162Z,99179.78
2023-05-04T06:42:47.518Z,99171.61
2023-05-04T06:47:55.062Z,99169.39
2023-05-04T06:53:12.198Z,99169.75
2023-05-04T06:58:22.149Z,99174.88
2023-05-04T07:03:29.649Z,99180.70
2023-05-04T07:08:37.295Z,99176.20
2023-05-04T07:13:44.826Z,99167.55
2023-05-04T07:18:52.374Z,99168.27
2023-05-04T07:23:59.672Z,99173.13
2023-05-04T07:29:06.944Z,99175.73
2023-05-04T07:34:14.023Z,99170.89
2023-05-04T07:39:21.140Z,99171.02
2023-05-04T07:44:28.169Z,99169.84
2023-05-04T07:49:35.773Z,99169.84
2023-05-04T07:54:43.130Z,99171.16
2023-05-04T07:59:50.445Z,99167.75
2023-05-04T08:04:57.802Z,99168.39
2023-05-04T08:10:05.626Z,99171.58
2023-05-04T08:15:14.326Z,99163.42
2023-05-04T08:20:23.534Z,99164.91
2023-05-04T08:25:31.365Z,99168.21
2023-05-04T08:30:39.270Z,99170.02
2023-05-04T08:35:46.698Z,99170.80
2023-05-04T08:40:54.352Z,99175.54
2023-05-04T08:46:01.818Z,99174.66
2023-05-04T08:51:09.256Z,99166.77
2023-05-04T08:56:16.816Z,99164.92
2023-05-04T09:01:24.399Z,99164.84
2023-05-04T09:06:31.758Z,99159.57
2023-05-04T09:11:39.636Z,99159.23
2023-05-04T09:16:46.743Z,99157.13
2023-05-04T09:21:54.816Z,99160.42
2023-05-04T09:27:11.976Z,99154.27
2023-05-04T09:32:19.507Z,99147.64
2023-05-04T09:37:27.162Z,99150.72
2023-05-04T09:42:34.860Z,99141.49
2023-05-04T09:47:42.882Z,99145.08
2023-05-04T09:52:50.947Z,99137.87
2023-05-04T09:57:58.574Z,99136.00
2023-05-04T10:03:07.703Z,99124.14
2023-05-04T10:08:15.255Z,99118.61
2023-05-04T10:13:22.436Z,99121.36
2023-05-04T10:18:37.323Z,99112.14
2023-05-04T10:23:56.916Z,99104.56
2023-05-04T10:29:10.464Z,99094.92
2023-05-04T10:34:25.888Z,99089.02
2023-05-04T10:39:33.644Z,99086.03
2023-05-04T10:44:52.142Z,99076.95
2023-05-04T10:50:09.475Z,99083.60
2023-05-04T10:55:16.671Z,99079.29
2023-05-04T11:00:24.328Z,99072.48
2023-05-04T11:05:41.846Z,99068.39
2023-05-04T11:10:49.974Z,99063.42
2023-05-04T11:15:56.865Z,99059.65
2023-05-04T11:21:04.253Z,99052.23
2023-05-04T11:26:12.786Z,99049.38
2023-05-04T11:31:20.724Z,99047.73
2023-05-04T11:36:27.954Z,99049.95
2023-05-04T11:41:36.833Z,99041.67
2023-05-04T11:46:44.338Z,99033.63
2023-05-04T11:51:51.694Z,99028.34
2023-05-04T11:56:59.277Z,99022.27
2023-05-04T12:02:06.546Z,99016.58
2023-05-04T12:07:13.717Z,99015.64
2023-05-04T12:12:21.950Z,99012.38
2023-05-04T12:17:29.122Z,99008.69
2023-05-04T12:22:37.023Z,99006.65
2023-05-04T12:27:44.325Z,99006.48
2023-05-04T12:32:51.578Z,98996.44
2023-05-04T12:37:58.870Z,98991.80
2023-05-04T12:43:06.248Z,98986.27
2023-05-04T12:48:13.664Z,98985.39
2023-05-04T12:53:22.588Z,98980.50
2023-05-04T12:58:30.898Z,98979.64
2023-05-04T13:03:38.531Z,98973.78
2023-05-04T13:08:47.582Z,98970.15
2023-05-04T13:13:55.359Z,98961.86
2023-05-04T13:19:02.777Z,98963.36
2023-05-04T13:24:11.713Z,98953.33
2023-05-04T13:29:19.078Z,98949.38
2023-05-04T13:34:26.405Z,98940.54
2023-05-04T13:39:41.427Z,98935.31
2023-05-04T13:44:48.866Z,98926.94
2023-05-04T13:49:56.569Z,98922.59
2023-05-04T13:55:04.573Z,98916.84
2023-05-04T14:00:13.841Z,98922.13
2023-05-04T14:05:22.297Z,98918.19
2023-05-04T14:10:29.613Z,98907.98
2023-05-04T14:15:37.004Z,98907.20
2023-05-04T14:20:44.306Z,98904.75
2023-05-04T14:25:53.611Z,98907.27
2023-05-04T14:31:09.054Z,98907.36
2023-05-04T14:36:16.379Z,98901.50
2023-05-04T14:41:23.743Z,98896.15
2023-05-04T14:46:32.523Z,98894.71
2023-05-04T14:51:40.141Z,98889.34
2023-05-04T14:56:48.021Z,98887.04
2023-05-04T15:01:57.502Z,98884.83
2023-05-04T15:07:04.706Z,98884.83
2023-05-04T15:12:12.048Z,98888.15
2023-05-04T15:17:20.342Z,98874.89
2023-05-04T15:22:27.476Z,98875.66
2023-05-04T15:27:34.884Z,98871.64
2023-05-04T15:32:42.232Z,98868.15
2023-05-04T15:37:49.554Z,98872.42
2023-05-04T15:42:57.068Z,98866.66
2023-05-04T15:48:04.375Z,98863.80
2023-05-04T15:53:11.990Z,98856.39
2023-05-04T15:58:19.303Z,98846.20
2023-05-04T16:03:26.549Z,98844.20
2023-05-04T16:08:34.083Z,98851.24
2023-05-04T16:13:41.630Z,98850.06
2023-05-04T16:18:49.042Z,98848.33
2023-05-04T16:23:56.665Z,98847.77
2023-05-04T16:29:04.058Z,98850.63
2023-05-04T16:34:11.303Z,98850.30
2023-05-04T16:39:19.139Z,98851.50
2023-05-04T16:44:26.236Z,98849.81
2023-05-04T16:49:33.487Z,98846.35
2023-05-04T16:54:40.709Z,98846.12
2023-05-04T16:59:47.790Z,98852.36
2023-05-04T17:04:55.348Z,98852.68
2023-05-04T17:10:02.916Z,98856.86
2023-05-04T17:15:11.351Z,98855.13
2023-05-04T17:20:18.509Z,98855.45
2023-05-04T17:25:25.768Z,98862.23
2023-05-04T17:30:34.096Z,98861.68
2023-05-04T17:35:41.351Z,98862.41
2023-05-04T17:40:48.798Z,98865.57
2023-05-04T17:45:56.337Z,98867.13
2023-05-04T17:51:03.988Z,98872.45
2023-05-04T17:56:11.535Z,98876.08
2023-05-04T18:01:18.750Z,98877.42
2023-05-04T18:06:26.499Z,98880.95
2023-05-04T18:11:33.855Z,98886.02
2023-05-04T18:16:41.111Z,98889.43
2023-05-04T18:21:48.145Z,98899.08
2023-05-04T18:26:56.465Z,98901.59
2023-05-04T18:32:08.355Z,98908.85
2023-05-04T18:37:15.513Z,98916.67
2023-05-04T18:42:22.667Z,98913.98
2023-05-04T18:47:30.043Z,98916.20
2023-05-04T18:52:37.399Z,98922.45
2023-05-04T18:57:44.848Z,98925.28
2023-05-04T19:02:52.142Z,98923.40
2023-05-04T19:07:59.385Z,98921.27
2023-05-04T19:13:06.704Z,98921.69
2023-05-04T19:18:14.290Z,98920.17
2023-05-04T19:23:21.563Z,98920.71
2023-05-04T19:28:29.019Z,98918.69
2023-05-04T19:33:47.347Z,98915.77
2023-05-04T19:38:56.427Z,98917.26
2023-05-04T19:44:03.897Z,98913.23
2023-05-04T19:49:12.064Z,98910.14
2023-05-04T19:54:19.460Z,98904.77
2023-05-04T19:59:26.799Z,98901.27
2023-05-04T20:04:34.177Z,98896.70
2023-05-04T20:09:41.743Z,98895.68
2023-05-04T20:14:49.193Z,98890.00
2023-05-04T20:19:56.965Z,98890.68
2023-05-04T20:25:04.533Z,98894.86
2023-05-04T20:30:12.337Z,98896.06
2023-05-04T20:35:19.604Z,98895.67
2023-05-04T20:40:26.981Z,98890.45
2023-05-04T20:45:34.612Z,98893.61
2023-05-04T20:50:41.822Z,98894.17
2023-05-04T20:55:49.435Z,98896.24
2023-05-04T21:00:58.304Z,98892.76
2023-05-04T21:06:06.299Z,98891.27
2023-05-04T21:11:14.110Z,98887.77
2023-05-04T21:16:21.854Z,98873.48
2023-05-04T21:21:29.337Z,98866.30
2023-05-04T21:26:36.714Z,98867.00
2023-05-04T21:31:44.043Z,98865.92
2023-05-04T21:36:51.563Z,98862.67
2023-05-04T21:41:59.045Z,98859.04
2023-05-04T21:47:07.512Z,98856.58
2023-05-04T21:52:15.018Z,98853.27
2023-05-04T21:57:22.156Z,98858.33
2023-05-04T22:02:29.760Z,98858.19
2023-05-04T22:07:37.513Z,98855.32
2023-05-04T22:12:45.024Z,98853.60
2023-05-04T22:17:52.376Z,98856.67
2023-05-04T22:22:59.607Z,98854.00
2023-05-04T22:28:06.886Z,98855.42
2023-05-04T22:33:14.120Z,98858.75
2023-05-04T22:38:21.500Z,98857.78
2023-05-04T22:43:28.714Z,98851.55
2023-05-04T22:48:36.008Z,98847.22
2023-05-04T22:53:43.537Z,98847.45
2023-05-04T22:58:51.077Z,98840.11
2023-05-04T23:03:58.178Z,98839.48
2023-05-04T23:09:05.426Z,98838.23
2023-05-04T23:14:13.256Z,98840.11
2023-05-04T23:19:20.427Z,98840.76
2023-05-04T23:24:27.554Z,98842.23
2023-05-04T23:29:34.663Z,98840.18
2023-05-04T23:34:41.987Z,98838.35
2023-05-04T23:39:49.204Z,98831.35
2023-05-04T23:44:57.626Z,98827.41
2023-05-04T23:50:05.254Z,98826.36
2023-05-04T23:55:13.279Z,98825.56
